createdAt,value
2022-09-27T00:01:16.356Z,9.30
2022-09-27T00:03:43.861Z,9.20
2022-09-27T00:06:18.937Z,9.20
2022-09-27T00:08:45.795Z,9.20
2022-09-27T00:11:30.822Z,9.10
2022-09-27T00:13:59.312Z,9.10
2022-09-27T00:16:28.631Z,9.20
2022-09-27T00:19:03.439Z,9.10
2022-09-27T00:21:30.833Z,9.10
2022-09-27T00:23:59.125Z,9.10
2022-09-27T00:26:26.883Z,9.10
2022-09-27T00:28:54.064Z,9.10
2022-09-27T00:31:29.388Z,9.10
2022-09-27T00:34:01.623Z,9.10
2022-09-27T00:36:29.686Z,9.10
2022-09-27T00:38:56.682Z,9.20
2022-09-27T00:41:42.704Z,9.20
2022-09-27T00:44:33.531Z,9.20
2022-09-27T00:47:03.409Z,9.30
2022-09-27T00:49:35.630Z,9.30
2022-09-27T00:52:10.543Z,9.30
2022-09-27T00:54:40.860Z,9.30
2022-09-27T00:57:08.522Z,9.30
2022-09-27T00:59:45.492Z,9.30
2022-09-27T01:02:12.692Z,9.30
2022-09-27T01:04:41.015Z,9.20
2022-09-27T01:07:07.875Z,9.20
2022-09-27T01:09:35.449Z,9.20
2022-09-27T01:12:27.737Z,9.10
2022-09-27T01:15:29.459Z,9.20
2022-09-27T01:18:05.154Z,9.20
2022-09-27T01:21:03.854Z,9.20
2022-09-27T01:23:55.767Z,9.20
2022-09-27T01:26:34.111Z,9.30
2022-09-27T01:29:06.896Z,9.30
2022-09-27T01:31:47.795Z,9.40
2022-09-27T01:34:31.884Z,9.40
2022-09-27T01:37:10.649Z,9.40
2022-09-27T01:39:46.252Z,9.50
2022-09-27T01:42:28.624Z,9.50
2022-09-27T01:45:00.897Z,9.60
2022-09-27T01:47:39.483Z,9.60
2022-09-27T01:50:09.105Z,9.60
2022-09-27T01:52:42.776Z,9.70
2022-09-27T01:55:13.321Z,9.70
2022-09-27T01:57:43.763Z,9.70
2022-09-27T02:00:12.888Z,9.70
2022-09-27T02:02:48.145Z,9.70
2022-09-27T02:05:17.961Z,9.70
2022-09-27T02:07:48.695Z,9.70
2022-09-27T02:10:24.619Z,9.70
2022-09-27T02:13:22.793Z,9.70
2022-09-27T02:15:58.003Z,9.70
2022-09-27T02:18:36.375Z,9.70
2022-09-27T02:21:07.773Z,9.70
2022-09-27T02:23:46.583Z,9.70
2022-09-27T02:26:31.238Z,9.70
2022-09-27T02:29:21.962Z,9.70
2022-09-27T02:31:49.590Z,9.70
2022-09-27T02:34:29.099Z,9.80
2022-09-27T02:36:56.303Z,9.80
2022-09-27T02:39:24.035Z,9.80
2022-09-27T02:41:52.098Z,9.80
2022-09-27T02:44:21.225Z,9.80
2022-09-27T02:47:14.450Z,9.80
2022-09-27T02:49:50.185Z,9.80
2022-09-27T02:52:38.627Z,9.80
2022-09-27T02:55:19.595Z,9.80
2022-09-27T02:58:04.879Z,9.80
2022-09-27T03:00:49.305Z,9.80
2022-09-27T03:03:50.840Z,9.80
2022-09-27T03:06:20.719Z,9.70
2022-09-27T03:08:48.170Z,9.70
2022-09-27T03:11:15.062Z,9.70
2022-09-27T03:14:01.846Z,9.80
2022-09-27T03:16:30.765Z,9.80
2022-09-27T03:18:57.661Z,9.80
2022-09-27T03:21:24.507Z,9.80
2022-09-27T03:23:51.386Z,9.80
2022-09-27T03:26:18.242Z,9.80
2022-09-27T03:28:45.079Z,9.80
2022-09-27T03:31:12.013Z,9.80
2022-09-27T03:33:38.940Z,9.80
2022-09-27T03:36:06.373Z,9.80
2022-09-27T03:38:33.375Z,9.80
2022-09-27T03:41:00.308Z,9.80
2022-09-27T03:43:27.239Z,9.80
2022-09-27T03:45:54.306Z,9.80
2022-09-27T03:48:24.570Z,9.80
2022-09-27T03:50:54.702Z,9.80
2022-09-27T03:53:21.559Z,9.90
2022-09-27T03:55:48.607Z,9.90
2022-09-27T03:58:15.787Z,10.00
2022-09-27T04:00:44.095Z,10.00
2022-09-27T04:03:12.181Z,10.00
2022-09-27T04:05:39.115Z,10.00
2022-09-27T04:08:11.184Z,10.10
2022-09-27T04:10:38.143Z,10.10
2022-09-27T04:13:05.614Z,10.10
2022-09-27T04:15:32.634Z,10.20
2022-09-27T04:17:59.527Z,10.20
2022-09-27T04:20:26.592Z,10.20
2022-09-27T04:22:53.443Z,10.20
2022-09-27T04:25:20.307Z,10.30
2022-09-27T04:27:48.403Z,10.30
2022-09-27T04:30:16.138Z,10.30
2022-09-27T04:32:44.355Z,10.30
2022-09-27T04:35:31.135Z,10.30
2022-09-27T04:37:58.382Z,10.30
2022-09-27T04:40:25.363Z,10.30
2022-09-27T04:42:52.537Z,10.20
2022-09-27T04:45:20.433Z,10.20
2022-09-27T04:47:50.705Z,10.20
2022-09-27T04:50:18.434Z,10.20
2022-09-27T04:52:45.315Z,10.20
2022-09-27T04:55:12.182Z,10.20
2022-09-27T04:57:39.018Z,10.20
2022-09-27T05:00:06.408Z,10.20
2022-09-27T05:02:33.293Z,10.20
2022-09-27T05:05:00.633Z,10.20
2022-09-27T05:07:28.326Z,10.30
2022-09-27T05:09:56.743Z,10.30
2022-09-27T05:12:25.807Z,10.20
2022-09-27T05:14:54.116Z,10.30
2022-09-27T05:17:22.347Z,10.30
2022-09-27T05:19:50.040Z,10.30
2022-09-27T05:22:17.402Z,10.20
2022-09-27T05:24:44.252Z,10.30
2022-09-27T05:27:16.209Z,10.30
2022-09-27T05:29:43.082Z,10.30
2022-09-27T05:32:10.083Z,10.30
2022-09-27T05:34:37.110Z,10.40
2022-09-27T05:37:04.163Z,10.40
2022-09-27T05:39:31.041Z,10.50
2022-09-27T05:41:58.017Z,10.50
2022-09-27T05:44:26.075Z,10.40
2022-09-27T05:46:53.004Z,10.40
2022-09-27T05:49:20.468Z,10.50
2022-09-27T05:51:47.731Z,10.50
2022-09-27T05:54:14.756Z,10.50
2022-09-27T05:56:41.744Z,10.60
2022-09-27T05:59:08.718Z,10.60
2022-09-27T06:01:35.663Z,10.70
2022-09-27T06:04:05.457Z,10.70
2022-09-27T06:06:35.716Z,10.70
2022-09-27T06:09:02.646Z,10.80
2022-09-27T06:11:29.570Z,10.80
2022-09-27T06:13:56.421Z,10.90
2022-09-27T06:16:23.354Z,11.00
2022-09-27T06:18:50.326Z,11.10
2022-09-27T06:21:17.251Z,11.20
2022-09-27T06:23:44.083Z,11.20
2022-09-27T06:26:11.708Z,11.20
2022-09-27T06:28:38.699Z,11.30
2022-09-27T06:31:08.701Z,11.20
2022-09-27T06:33:35.877Z,11.20
2022-09-27T06:36:04.841Z,11.30
2022-09-27T06:38:32.835Z,11.40
2022-09-27T06:41:04.672Z,11.50
2022-09-27T06:43:31.875Z,11.60
2022-09-27T06:46:06.117Z,11.60
2022-09-27T06:48:34.073Z,11.70
2022-09-27T06:51:00.979Z,11.80
2022-09-27T06:53:29.951Z,11.80
2022-09-27T06:56:01.288Z,11.80
2022-09-27T06:58:48.038Z,11.90
2022-09-27T07:01:15.215Z,11.90
2022-09-27T07:03:43.292Z,11.80
2022-09-27T07:06:22.951Z,11.70
2022-09-27T07:08:52.157Z,11.90
2022-09-27T07:11:19.635Z,12.00
2022-09-27T07:13:46.517Z,12.10
2022-09-27T07:16:14.120Z,12.30
2022-09-27T07:18:42.393Z,12.50
2022-09-27T07:21:09.426Z,12.70
2022-09-27T07:23:37.313Z,12.80
2022-09-27T07:26:05.513Z,12.90
2022-09-27T07:28:32.884Z,13.00
2022-09-27T07:30:59.928Z,13.10
2022-09-27T07:33:27.443Z,13.20
2022-09-27T07:35:54.331Z,13.30
2022-09-27T07:38:21.268Z,13.40
2022-09-27T07:40:48.185Z,13.40
2022-09-27T07:43:15.510Z,13.40
2022-09-27T07:45:42.422Z,13.40
2022-09-27T07:48:13.293Z,13.40
2022-09-27T07:50:40.326Z,13.50
2022-09-27T07:53:08.010Z,13.70
2022-09-27T07:55:34.875Z,13.90
2022-09-27T07:58:07.289Z,14.10
2022-09-27T08:00:34.512Z,14.40
2022-09-27T08:03:07.062Z,14.60
2022-09-27T08:05:36.258Z,14.70
2022-09-27T08:08:04.038Z,14.80
2022-09-27T08:10:32.547Z,14.90
2022-09-27T08:13:03.662Z,15.00
2022-09-27T08:15:36.959Z,15.20
2022-09-27T08:18:03.977Z,15.30
2022-09-27T08:20:30.827Z,15.50
2022-09-27T08:22:57.703Z,15.30
2022-09-27T08:25:24.609Z,15.30
2022-09-27T08:27:58.773Z,15.20
2022-09-27T08:30:27.771Z,15.00
2022-09-27T08:32:58.961Z,14.90
2022-09-27T08:35:28.211Z,14.70
2022-09-27T08:37:59.968Z,14.50
2022-09-27T08:40:55.964Z,14.10
2022-09-27T08:43:31.843Z,14.00
2022-09-27T08:46:02.033Z,14.10
2022-09-27T08:48:30.539Z,14.00
2022-09-27T08:50:58.572Z,14.20
2022-09-27T08:53:42.829Z,14.30
2022-09-27T08:56:11.988Z,14.30
2022-09-27T08:58:50.147Z,14.10
2022-09-27T09:01:18.473Z,14.00
2022-09-27T09:03:55.780Z,14.00
2022-09-27T09:06:30.184Z,14.00
2022-09-27T09:09:06.104Z,14.10
2022-09-27T09:12:28.502Z,14.20
2022-09-27T09:14:55.373Z,14.20
2022-09-27T09:17:37.134Z,14.20
2022-09-27T09:20:22.109Z,14.10
2022-09-27T09:23:13.538Z,13.90
2022-09-27T09:25:50.847Z,13.70
2022-09-27T09:28:29.904Z,13.60
2022-09-27T09:31:05.675Z,13.50
2022-09-27T09:33:46.363Z,13.40
2022-09-27T09:36:35.172Z,13.30
2022-09-27T09:39:11.123Z,13.20
2022-09-27T09:41:48.634Z,13.30
2022-09-27T09:44:48.155Z,13.30
2022-09-27T09:47:33.296Z,13.30
2022-09-27T09:50:07.022Z,13.30
2022-09-27T09:53:13.013Z,13.20
2022-09-27T09:55:42.473Z,13.30
2022-09-27T09:58:20.909Z,13.40
2022-09-27T10:00:50.799Z,13.50
2022-09-27T10:03:17.831Z,13.50
2022-09-27T10:05:45.724Z,13.50
2022-09-27T10:08:24.278Z,13.60
2022-09-27T10:10:51.202Z,13.70
2022-09-27T10:13:20.798Z,13.80
2022-09-27T10:16:03.621Z,13.90
2022-09-27T10:18:31.571Z,13.90
2022-09-27T10:21:02.206Z,14.10
2022-09-27T10:23:30.101Z,14.30
2022-09-27T10:26:04.055Z,14.40
2022-09-27T10:28:37.438Z,14.50
2022-09-27T10:31:21.362Z,14.70
2022-09-27T10:33:56.244Z,14.90
2022-09-27T10:36:29.340Z,15.00
2022-09-27T10:39:01.540Z,15.00
2022-09-27T10:41:36.736Z,15.20
2022-09-27T10:44:25.622Z,15.10
2022-09-27T10:46:58.715Z,15.30
2022-09-27T10:49:37.080Z,15.40
2022-09-27T10:52:08.115Z,15.30
2022-09-27T10:54:40.762Z,15.30
2022-09-27T10:57:23.102Z,15.10
2022-09-27T11:00:01.667Z,15.20
2022-09-27T11:02:35.139Z,15.20
2022-09-27T11:05:16.083Z,15.20
2022-09-27T11:07:52.858Z,15.30
2022-09-27T11:10:37.436Z,15.30
2022-09-27T11:13:12.565Z,15.30
2022-09-27T11:15:51.154Z,15.20
2022-09-27T11:18:31.586Z,15.20
2022-09-27T11:21:18.350Z,15.30
2022-09-27T11:24:04.826Z,15.30
2022-09-27T11:26:59.218Z,15.40
2022-09-27T11:29:35.711Z,15.40
2022-09-27T11:32:02.946Z,15.50
2022-09-27T11:34:44.932Z,15.60
2022-09-27T11:37:11.775Z,15.60
2022-09-27T11:39:53.484Z,15.70
2022-09-27T11:42:57.221Z,15.90
2022-09-27T11:45:50.327Z,16.00
2022-09-27T11:48:51.851Z,16.00
2022-09-27T11:51:27.818Z,16.10
2022-09-27T11:54:16.201Z,16.20
2022-09-27T11:56:49.029Z,16.00
2022-09-27T11:59:25.189Z,16.10
2022-09-27T12:02:18.627Z,15.90
2022-09-27T12:04:57.387Z,15.80
2022-09-27T12:08:01.624Z,15.80
2022-09-27T12:10:28.974Z,15.80
2022-09-27T12:12:58.017Z,15.80
2022-09-27T12:15:30.469Z,15.80
2022-09-27T12:18:10.080Z,15.90
2022-09-27T12:20:39.822Z,15.80
2022-09-27T12:23:15.242Z,15.90
2022-09-27T12:25:43.994Z,16.00
2022-09-27T12:28:28.408Z,16.20
2022-09-27T12:31:27.652Z,16.10
2022-09-27T12:37:11.724Z,16.20
2022-09-27T12:39:43.519Z,16.30
2022-09-27T12:42:25.950Z,16.50
2022-09-27T12:44:53.515Z,16.50
2022-09-27T12:47:48.190Z,16.50
2022-09-27T12:50:37.696Z,16.60
2022-09-27T12:53:23.421Z,16.70
2022-09-27T12:56:01.813Z,16.60
2022-09-27T12:58:47.084Z,16.60
2022-09-27T13:01:23.263Z,16.50
2022-09-27T13:04:10.613Z,16.40
2022-09-27T13:06:47.408Z,16.40
2022-09-27T13:09:26.585Z,16.40
2022-09-27T13:12:10.339Z,16.30
2022-09-27T13:14:59.745Z,16.10
2022-09-27T13:17:49.986Z,16.10
2022-09-27T13:20:37.509Z,16.10
2022-09-27T13:23:18.375Z,16.10
2022-09-27T13:26:14.479Z,15.90
2022-09-27T13:28:50.407Z,15.80
2022-09-27T13:31:37.432Z,15.60
2022-09-27T13:34:04.682Z,15.60
2022-09-27T13:36:32.906Z,15.80
2022-09-27T13:39:01.378Z,15.70
2022-09-27T13:41:46.445Z,15.70
2022-09-27T13:44:22.942Z,15.70
2022-09-27T13:47:00.253Z,15.80
2022-09-27T13:49:47.916Z,15.90
2022-09-27T13:52:36.448Z,15.90
2022-09-27T13:55:07.499Z,15.80
2022-09-27T13:58:15.741Z,15.70
2022-09-27T14:00:48.237Z,15.40
2022-09-27T14:03:46.879Z,15.20
2022-09-27T14:06:35.281Z,14.90
2022-09-27T14:09:06.618Z,15.10
2022-09-27T14:11:44.208Z,15.10
2022-09-27T14:14:24.246Z,15.10
2022-09-27T14:16:51.388Z,14.90
2022-09-27T14:19:25.584Z,14.90
2022-09-27T14:22:11.067Z,14.90
2022-09-27T14:24:37.815Z,14.80
2022-09-27T14:27:19.995Z,14.80
2022-09-27T14:29:51.482Z,14.70
2022-09-27T14:32:24.887Z,14.60
2022-09-27T14:35:03.727Z,14.60
2022-09-27T14:37:30.947Z,14.60
2022-09-27T14:40:18.957Z,14.50
2022-09-27T14:42:45.970Z,14.40
2022-09-27T14:45:21.781Z,14.40
2022-09-27T14:47:51.083Z,14.30
2022-09-27T14:50:24.922Z,14.20
2022-09-27T14:52:56.271Z,14.20
2022-09-27T14:55:25.680Z,14.10
2022-09-27T14:58:00.871Z,14.10
2022-09-27T15:00:32.218Z,14.00
2022-09-27T15:03:03.175Z,13.90
2022-09-27T15:05:33.226Z,13.90
2022-09-27T15:08:04.551Z,13.90
2022-09-27T15:10:35.158Z,13.80
2022-09-27T15:13:04.724Z,13.70
2022-09-27T15:15:35.178Z,13.70
2022-09-27T15:18:03.612Z,13.70
2022-09-27T15:20:35.233Z,13.60
2022-09-27T15:23:04.587Z,13.60
2022-09-27T15:26:01.151Z,13.60
2022-09-27T15:28:28.137Z,13.50
2022-09-27T15:30:57.769Z,13.50
2022-09-27T15:33:28.816Z,13.50
2022-09-27T15:35:58.692Z,13.40
2022-09-27T15:38:32.814Z,13.30
2022-09-27T15:41:07.168Z,13.30
2022-09-27T15:43:36.371Z,13.20
2022-09-27T15:46:24.695Z,13.10
2022-09-27T15:49:19.388Z,13.00
2022-09-27T15:51:48.562Z,12.90
2022-09-27T15:54:18.668Z,12.90
2022-09-27T15:56:45.996Z,12.70
2022-09-27T15:59:29.505Z,12.70
2022-09-27T16:01:58.798Z,12.70
2022-09-27T16:04:31.714Z,12.60
2022-09-27T16:07:01.125Z,12.50
2022-09-27T16:09:28.488Z,12.50
2022-09-27T16:11:55.302Z,12.50
2022-09-27T16:14:22.113Z,12.40
2022-09-27T16:17:03.756Z,12.30
2022-09-27T16:19:30.591Z,12.20
2022-09-27T16:21:57.713Z,12.00
2022-09-27T16:24:25.572Z,11.80
2022-09-27T16:26:52.407Z,11.60
2022-09-27T16:29:19.232Z,11.50
2022-09-27T16:31:46.539Z,11.40
2022-09-27T16:34:13.863Z,11.40
2022-09-27T16:36:40.865Z,11.30
2022-09-27T16:39:12.769Z,11.30
2022-09-27T16:41:43.599Z,11.10
2022-09-27T16:44:12.755Z,11.10
2022-09-27T16:46:41.481Z,11.00
2022-09-27T16:49:28.601Z,11.00
2022-09-27T16:52:01.330Z,10.90
2022-09-27T16:54:29.336Z,10.90
2022-09-27T16:56:59.829Z,10.80
2022-09-27T16:59:27.594Z,10.80
2022-09-27T17:01:57.897Z,10.80
2022-09-27T17:04:27.480Z,10.70
2022-09-27T17:06:55.342Z,10.60
2022-09-27T17:09:22.354Z,10.60
2022-09-27T17:11:49.800Z,10.60
2022-09-27T17:14:19.534Z,10.50
2022-09-27T17:16:47.757Z,10.40
2022-09-27T17:19:16.086Z,10.40
2022-09-27T17:21:43.594Z,10.30
2022-09-27T17:24:11.104Z,10.30
2022-09-27T17:26:37.940Z,10.20
2022-09-27T17:29:04.822Z,10.20
2022-09-27T17:31:34.698Z,10.20
2022-09-27T17:34:02.638Z,10.20
2022-09-27T17:36:34.549Z,10.20
2022-09-27T17:39:02.124Z,10.10
2022-09-27T17:41:29.946Z,10.00
2022-09-27T17:43:59.213Z,9.90
2022-09-27T17:46:28.871Z,9.90
2022-09-27T17:49:15.167Z,9.90
2022-09-27T17:51:42.860Z,9.90
2022-09-27T17:54:10.565Z,9.90
2022-09-27T17:56:39.112Z,9.80
2022-09-27T17:59:07.106Z,9.70
2022-09-27T18:01:34.535Z,9.60
2022-09-27T18:04:01.803Z,9.50
2022-09-27T18:06:29.007Z,9.50
2022-09-27T18:08:56.519Z,9.40
2022-09-27T18:11:28.482Z,9.30
2022-09-27T18:13:58.718Z,9.30
2022-09-27T18:16:29.735Z,9.30
2022-09-27T18:18:58.203Z,9.20
2022-09-27T18:21:26.819Z,9.20
2022-09-27T18:23:56.849Z,9.10
2022-09-27T18:26:25.430Z,9.20
2022-09-27T18:28:54.579Z,9.20
2022-09-27T18:31:23.533Z,9.20
2022-09-27T18:33:50.876Z,9.20
2022-09-27T18:36:20.462Z,9.20
2022-09-27T18:38:52.927Z,9.10
2022-09-27T18:41:21.864Z,9.00
2022-09-27T18:43:49.619Z,9.00
2022-09-27T18:46:37.492Z,8.90
2022-09-27T18:49:06.550Z,8.80
2022-09-27T18:51:36.234Z,8.70
2022-09-27T18:54:09.481Z,8.70
2022-09-27T18:56:39.414Z,8.60
2022-09-27T18:59:10.742Z,8.60
2022-09-27T19:01:45.144Z,8.50
2022-09-27T19:04:14.891Z,8.50
2022-09-27T19:06:41.954Z,8.40
2022-09-27T19:09:11.530Z,8.40
2022-09-27T19:11:39.159Z,8.30
2022-09-27T19:14:06.329Z,8.20
2022-09-27T19:16:33.464Z,8.20
2022-09-27T19:19:00.362Z,8.10
2022-09-27T19:21:29.515Z,8.10
2022-09-27T19:23:57.224Z,8.10
2022-09-27T19:26:26.368Z,8.00
2022-09-27T19:28:53.347Z,7.90
2022-09-27T19:31:26.222Z,7.90
2022-09-27T19:33:58.941Z,7.90
2022-09-27T19:36:26.839Z,7.80
2022-09-27T19:38:53.703Z,7.60
2022-09-27T19:41:20.606Z,7.50
2022-09-27T19:43:52.056Z,7.50
2022-09-27T19:46:19.741Z,7.30
2022-09-27T19:48:47.848Z,7.10
2022-09-27T19:51:16.698Z,7.00
2022-09-27T19:53:43.647Z,6.90
2022-09-27T19:56:11.907Z,6.80
2022-09-27T19:58:40.471Z,6.70
2022-09-27T20:01:16.445Z,6.70
2022-09-27T20:03:44.532Z,6.60
2022-09-27T20:06:14.561Z,6.50
2022-09-27T20:08:42.537Z,6.50
2022-09-27T20:11:11.991Z,6.50
2022-09-27T20:13:39.891Z,6.50
2022-09-27T20:16:18.248Z,6.50
2022-09-27T20:18:50.755Z,6.30
2022-09-27T20:21:18.795Z,6.20
2022-09-27T20:23:49.515Z,6.10
2022-09-27T20:26:17.494Z,6.00
2022-09-27T20:28:46.531Z,5.90
2022-09-27T20:31:17.641Z,5.90
2022-09-27T20:33:46.764Z,5.80
2022-09-27T20:36:19.072Z,5.70
2022-09-27T20:38:47.830Z,5.70
2022-09-27T20:41:17.809Z,5.60
2022-09-27T20:43:45.742Z,5.50
2022-09-27T20:46:15.453Z,5.50
2022-09-27T20:48:43.431Z,5.50
2022-09-27T20:51:14.268Z,5.50
2022-09-27T20:53:42.532Z,5.60
2022-09-27T20:56:21.232Z,5.70
2022-09-27T20:58:53.537Z,5.60
2022-09-27T21:01:22.745Z,5.50
2022-09-27T21:03:54.814Z,5.40
2022-09-27T21:06:24.416Z,5.30
2022-09-27T21:08:51.647Z,5.20
2022-09-27T21:11:19.696Z,5.20
2022-09-27T21:13:47.779Z,5.10
2022-09-27T21:16:17.472Z,5.10
2022-09-27T21:18:45.130Z,5.10
2022-09-27T21:21:14.443Z,5.10
2022-09-27T21:23:44.846Z,5.10
2022-09-27T21:26:19.905Z,5.10
2022-09-27T21:28:49.287Z,5.00
2022-09-27T21:31:22.508Z,5.10
2022-09-27T21:33:54.093Z,5.10
2022-09-27T21:36:23.482Z,5.00
2022-09-27T21:38:50.758Z,5.00
2022-09-27T21:41:18.464Z,5.00
2022-09-27T21:43:47.820Z,5.00
2022-09-27T21:46:19.500Z,4.90
2022-09-27T21:48:48.958Z,5.00
2022-09-27T21:51:30.483Z,5.00
2022-09-27T21:54:02.371Z,5.30
2022-09-27T21:56:37.531Z,5.20
2022-09-27T21:59:05.876Z,5.20
2022-09-27T22:01:34.270Z,5.10
2022-09-27T22:04:03.627Z,5.10
2022-09-27T22:06:38.297Z,5.00
2022-09-27T22:09:07.989Z,4.90
2022-09-27T22:11:38.057Z,4.80
2022-09-27T22:14:09.447Z,4.80
2022-09-27T22:16:36.714Z,4.70
2022-09-27T22:19:04.313Z,4.70
2022-09-27T22:21:38.754Z,4.70
2022-09-27T22:24:08.551Z,4.70
2022-09-27T22:26:38.203Z,4.70
2022-09-27T22:29:06.018Z,4.70
2022-09-27T22:31:33.039Z,4.70
2022-09-27T22:34:02.438Z,4.70
2022-09-27T22:36:30.503Z,4.80
2022-09-27T22:38:57.850Z,4.90
2022-09-27T22:41:25.598Z,5.00
2022-09-27T22:43:55.090Z,5.20
2022-09-27T22:46:22.447Z,5.20
2022-09-27T22:48:49.919Z,5.30
2022-09-27T22:51:17.611Z,5.20
2022-09-27T22:53:44.511Z,5.20
2022-09-27T22:56:19.859Z,5.20
2022-09-27T22:58:48.101Z,5.20
2022-09-27T23:01:16.912Z,5.20
2022-09-27T23:03:44.320Z,5.10
2022-09-27T23:06:12.238Z,5.00
2022-09-27T23:08:39.707Z,4.90
2022-09-27T23:11:11.586Z,4.90
2022-09-27T23:13:41.422Z,4.80
2022-09-27T23:16:16.530Z,4.80
2022-09-27T23:18:44.429Z,4.70
2022-09-27T23:21:13.217Z,4.70
2022-09-27T23:23:45.067Z,4.70
2022-09-27T23:26:17.432Z,4.80
2022-09-27T23:28:44.771Z,4.80
2022-09-27T23:31:17.071Z,4.70
2022-09-27T23:33:48.649Z,4.60
2022-09-27T23:36:17.788Z,4.50
2022-09-27T23:38:48.614Z,4.50
2022-09-27T23:41:17.090Z,4.40
2022-09-27T23:43:44.579Z,4.50
2022-09-27T23:46:12.317Z,4.50
2022-09-27T23:48:39.989Z,4.40
2022-09-27T23:51:08.970Z,4.40
2022-09-27T23:53:36.694Z,4.70
2022-09-27T23:56:14.350Z,4.70
2022-09-27T23:58:43.248Z,4.60
